This is the latest recevied weather packets stored in our database for station/object KB2FWP. If no packets are shown the sender has not sent any weather packets the latest 10 day(s).
| Time | Temp. | Humidity | Pressure | Rain* | Wind** | Luminosity | Snow |
|---|---|---|---|---|---|---|---|
| 1777648522 | 15.56° C | 45% | 1014.4 hPa | 0 mm | - | - | - |
| 1777647619 | 15° C | 46% | 1014.4 hPa | 0 mm | - | - | - |
| 1777646725 | 15° C | 47% | 1014.2 hPa | 0 mm | - | - | - |
| 1777645815 | 14.44° C | 48% | 1014.3 hPa | 0 mm | - | - | - |
| 1777644912 | 13.89° C | 50% | 1014.4 hPa | 0 mm | - | - | - |
| 1777644007 | 13.33° C | 53% | 1014.4 hPa | 0 mm | - | - | - |
| 1777643105 | 12.78° C | 55% | 1014.4 hPa | 0 mm | - | - | - |
| 1777642208 | 12.78° C | 54% | 1014.5 hPa | 0 mm | - | - | - |
| 1777641361 | 12.22° C | 57% | 1014.6 hPa | 0 mm | - | - | - |
| 1777640464 | 11.11° C | 59% | 1014.6 hPa | 0 mm | - | - | - |
| 1777639556 | 10.56° C | 61% | 1014.5 hPa | 0 mm | - | - | - |
| 1777638653 | 10° C | 64% | 1014.4 hPa | 0 mm | - | - | - |
| 1777637751 | 9.44° C | 66% | 1014.4 hPa | 0 mm | - | - | - |
| 1777636850 | 9.44° C | 66% | 1014.5 hPa | 0 mm | - | - | - |
| 1777635950 | 8.89° C | 68% | 1014.4 hPa | 0 mm | - | - | - |
| 1777635049 | 8.33° C | 69% | 1014.4 hPa | 0 mm | - | - | - |
| 1777634144 | 8.33° C | 71% | 1014.3 hPa | 0 mm | - | - | - |
| 1777633242 | 7.78° C | 73% | 1014.2 hPa | 0 mm | - | - | - |
| 1777632354 | 7.22° C | 73% | 1014.1 hPa | 0 mm | - | - | - |
| 1777631438 | 7.22° C | 73% | 1013.8 hPa | 0 mm | - | - | - |
| 1777630534 | 7.22° C | 72% | 1013.7 hPa | 0 mm | - | - | - |
| 1777629666 | 7.78° C | 70% | 1013.3 hPa | 0 mm | - | - | - |
| 1777628729 | 7.78° C | 70% | 1013 hPa | 0 mm | - | - | - |
| 1777627825 | 7.78° C | 69% | 1012.8 hPa | 0 mm | - | - | - |
| 1777626926 | 7.78° C | 68% | 1012.7 hPa | 0 mm | - | - | - |
* Rain latest hour (hover to see other rain measurements)
** Current wind speed in m/s (hover to see current wind gust speed)